createdAt,value
2018-06-09T00:00:58.861Z,26.33
2018-06-09T00:03:27.625Z,17.20
2018-06-09T00:05:56.425Z,21.10
2018-06-09T00:08:25.185Z,15.30
2018-06-09T00:10:53.963Z,18.70
2018-06-09T00:13:22.748Z,20.77
2018-06-09T00:15:51.513Z,17.17
2018-06-09T00:18:20.237Z,22.57
2018-06-09T00:20:48.953Z,25.57
2018-06-09T00:23:17.741Z,22.13
2018-06-09T00:25:46.484Z,23.17
2018-06-09T00:28:15.242Z,19.73
2018-06-09T00:30:43.947Z,19.23
2018-06-09T00:33:12.709Z,23.30
2018-06-09T00:35:41.506Z,37.03
2018-06-09T00:38:10.257Z,23.40
2018-06-09T00:40:39.038Z,27.47
2018-06-09T00:43:07.789Z,38.70
2018-06-09T00:45:36.532Z,27.60
2018-06-09T00:48:05.327Z,27.23
2018-06-09T00:50:34.094Z,28.43
2018-06-09T00:53:02.833Z,23.37
2018-06-09T00:55:31.582Z,47.07
2018-06-09T00:58:00.351Z,30.73
2018-06-09T01:00:29.076Z,29.50
2018-06-09T01:02:57.832Z,38.43
2018-06-09T01:05:26.579Z,33.63
2018-06-09T01:07:55.408Z,29.07
2018-06-09T01:10:28.848Z,29.10
2018-06-09T01:13:00.519Z,31.63
2018-06-09T01:15:33.634Z,35.77
2018-06-09T01:18:07.702Z,29.73
2018-06-09T01:20:40.610Z,32.67
2018-06-09T01:23:13.888Z,33.00
2018-06-09T01:25:47.565Z,30.93
2018-06-09T01:28:23.653Z,29.87
2018-06-09T01:30:57.911Z,26.80
2018-06-09T01:33:31.793Z,27.63
2018-06-09T01:36:05.762Z,20.87
2018-06-09T01:38:41.339Z,26.10
2018-06-09T01:41:14.754Z,26.70
2018-06-09T01:43:51.331Z,24.67
2018-06-09T01:46:22.878Z,24.80
2018-06-09T01:48:56.333Z,29.63
2018-06-09T01:51:31.268Z,31.77
2018-06-09T01:54:04.282Z,37.77
2018-06-09T01:56:39.906Z,29.77
2018-06-09T01:59:14.824Z,40.97
2018-06-09T02:01:47.816Z,29.03
2018-06-09T02:04:22.254Z,25.73
2018-06-09T02:06:55.846Z,29.93
2018-06-09T02:09:28.746Z,29.10
2018-06-09T02:12:01.222Z,28.10
2018-06-09T02:14:37.515Z,27.27
2018-06-09T02:17:10.667Z,34.20
2018-06-09T02:19:43.489Z,26.20
2018-06-09T02:22:13.657Z,30.37
2018-06-09T02:24:47.384Z,35.10
2018-06-09T02:27:19.945Z,34.10
2018-06-09T02:29:52.806Z,34.60
2018-06-09T02:32:25.018Z,35.13
2018-06-09T02:34:57.484Z,35.03
2018-06-09T02:37:28.608Z,38.63
2018-06-09T02:39:58.816Z,31.77
2018-06-09T02:42:28.990Z,40.83
2018-06-09T02:45:02.197Z,38.00
2018-06-09T02:47:35.606Z,38.03
2018-06-09T02:50:05.998Z,39.30
2018-06-09T02:52:37.816Z,33.90
2018-06-09T02:55:10.602Z,33.03
2018-06-09T02:57:43.278Z,31.27
2018-06-09T03:00:16.638Z,42.83
2018-06-09T03:02:49.623Z,36.40
2018-06-09T03:05:22.500Z,51.50
2018-06-09T03:07:54.929Z,38.40
2018-06-09T03:10:28.956Z,40.70
2018-06-09T03:13:01.719Z,32.90
2018-06-09T03:15:34.217Z,36.47
2018-06-09T03:18:06.624Z,43.13
2018-06-09T03:20:40.510Z,38.90
2018-06-09T03:23:13.545Z,34.90
2018-06-09T03:25:47.107Z,31.70
2018-06-09T03:28:19.866Z,38.53
2018-06-09T03:30:53.897Z,33.47
2018-06-09T03:33:26.367Z,38.20
2018-06-09T03:35:55.175Z,36.00
2018-06-09T03:38:23.901Z,29.57
2018-06-09T03:40:52.769Z,32.63
2018-06-09T03:43:21.585Z,24.03
2018-06-09T03:45:50.322Z,25.40
2018-06-09T03:48:19.150Z,24.93
2018-06-09T03:50:47.946Z,22.33
2018-06-09T03:53:16.714Z,28.30
2018-06-09T03:55:45.461Z,23.50
2018-06-09T03:58:14.194Z,24.27
2018-06-09T04:00:42.920Z,23.73
2018-06-09T04:03:12.534Z,27.13
2018-06-09T04:05:41.299Z,29.77
2018-06-09T04:08:09.992Z,38.97
2018-06-09T04:10:38.722Z,28.27
2018-06-09T04:13:07.521Z,27.40
2018-06-09T04:15:36.204Z,51.70
2018-06-09T04:18:05.010Z,40.13
2018-06-09T04:20:33.825Z,61.37
2018-06-09T04:23:02.572Z,45.97
2018-06-09T04:25:31.464Z,47.90
2018-06-09T04:28:00.259Z,44.90
2018-06-09T04:30:29.017Z,46.50
2018-06-09T04:32:57.861Z,34.23
2018-06-09T04:35:26.695Z,29.57
2018-06-09T04:37:55.497Z,32.03
2018-06-09T04:40:24.349Z,31.80
2018-06-09T04:42:53.217Z,46.43
2018-06-09T04:45:21.966Z,45.67
2018-06-09T04:47:50.653Z,45.63
2018-06-09T04:50:19.522Z,42.70
2018-06-09T04:52:48.605Z,52.70
2018-06-09T04:55:17.390Z,41.07
2018-06-09T04:57:46.209Z,53.20
2018-06-09T05:00:15.060Z,53.63
2018-06-09T05:02:43.962Z,46.50
2018-06-09T05:05:12.708Z,62.17
2018-06-09T05:07:41.473Z,47.23
2018-06-09T05:10:10.253Z,48.37
2018-06-09T05:12:39.060Z,49.27
2018-06-09T05:15:07.823Z,42.13
2018-06-09T05:17:36.656Z,48.37
2018-06-09T05:20:05.452Z,48.57
2018-06-09T05:22:34.249Z,51.67
2018-06-09T05:25:03.041Z,50.93
2018-06-09T05:27:32.101Z,57.23
2018-06-09T05:30:00.925Z,49.53
2018-06-09T05:32:29.706Z,55.00
2018-06-09T05:34:58.466Z,56.93
2018-06-09T05:37:27.205Z,42.43
2018-06-09T05:39:56.010Z,46.47
2018-06-09T05:42:24.782Z,47.70
2018-06-09T05:44:53.655Z,49.47
2018-06-09T05:47:22.484Z,47.50
2018-06-09T05:49:51.346Z,45.10
2018-06-09T05:52:21.806Z,48.00
2018-06-09T05:54:50.603Z,51.10
2018-06-09T05:57:19.450Z,46.77
2018-06-09T05:59:48.225Z,41.47
2018-06-09T06:02:17.001Z,43.77
2018-06-09T06:04:45.717Z,47.67
2018-06-09T06:07:14.406Z,44.10
2018-06-09T06:09:43.106Z,40.20
2018-06-09T06:12:11.801Z,46.03
2018-06-09T06:14:40.570Z,41.10
2018-06-09T06:17:09.297Z,41.10
2018-06-09T06:19:38.040Z,50.33
2018-06-09T06:22:06.985Z,39.63
2018-06-09T06:24:35.780Z,43.60
2018-06-09T06:27:04.574Z,38.47
2018-06-09T06:29:33.701Z,41.33
2018-06-09T06:32:02.633Z,36.90
2018-06-09T06:34:31.452Z,38.37
2018-06-09T06:37:00.364Z,36.13
2018-06-09T06:39:29.223Z,39.90
2018-06-09T06:41:58.106Z,40.97
2018-06-09T06:44:26.956Z,26.37
2018-06-09T06:46:55.785Z,32.23
2018-06-09T06:49:24.922Z,30.33
2018-06-09T06:51:53.714Z,27.00
2018-06-09T06:54:22.528Z,32.20
2018-06-09T06:56:51.291Z,31.77
2018-06-09T06:59:20.077Z,42.13
2018-06-09T07:01:48.971Z,42.43
2018-06-09T07:04:17.788Z,33.43
2018-06-09T07:06:46.516Z,31.80
2018-06-09T07:09:14.962Z,30.50
2018-06-09T07:11:43.821Z,32.50
2018-06-09T07:14:12.607Z,28.90
2018-06-09T07:16:41.380Z,28.00
2018-06-09T07:19:10.137Z,32.00
2018-06-09T07:21:38.944Z,29.20
2018-06-09T07:24:07.674Z,30.03
2018-06-09T07:26:36.428Z,36.20
2018-06-09T07:29:05.260Z,29.70
2018-06-09T07:31:34.028Z,35.60
2018-06-09T07:34:02.837Z,31.00
2018-06-09T07:36:31.711Z,32.90
2018-06-09T07:39:00.590Z,25.63
2018-06-09T07:41:29.350Z,29.17
2018-06-09T07:43:58.237Z,30.47
2018-06-09T07:46:26.972Z,30.63
2018-06-09T07:48:55.733Z,29.93
2018-06-09T07:51:24.414Z,22.87
2018-06-09T07:53:53.221Z,25.23
2018-06-09T07:56:21.989Z,30.40
2018-06-09T07:58:50.713Z,24.80
2018-06-09T08:01:19.536Z,27.13
2018-06-09T08:03:48.309Z,26.40
2018-06-09T08:06:17.139Z,21.03
2018-06-09T08:08:45.952Z,30.57
2018-06-09T08:11:14.764Z,26.87
2018-06-09T08:13:43.525Z,31.23
2018-06-09T08:16:12.291Z,25.90
2018-06-09T08:18:41.070Z,24.13
2018-06-09T08:21:09.885Z,21.60
2018-06-09T08:23:38.760Z,22.23
2018-06-09T08:26:07.532Z,29.63
2018-06-09T08:28:36.229Z,26.77
2018-06-09T08:31:04.903Z,23.17
2018-06-09T08:33:33.649Z,19.93
2018-06-09T08:36:02.412Z,21.90
2018-06-09T08:38:31.594Z,19.17
2018-06-09T08:41:00.305Z,21.33
2018-06-09T08:43:29.089Z,23.70
2018-06-09T08:45:57.832Z,22.57
2018-06-09T08:48:26.588Z,20.77
2018-06-09T08:50:55.313Z,22.93
2018-06-09T08:53:24.065Z,25.13
2018-06-09T08:55:52.797Z,22.27
2018-06-09T08:58:21.625Z,39.03
2018-06-09T09:00:50.325Z,21.50
2018-06-09T09:03:19.071Z,22.83
2018-06-09T09:05:47.785Z,20.40
2018-06-09T09:08:17.017Z,20.37
2018-06-09T09:10:45.744Z,22.33
2018-06-09T09:13:14.667Z,21.80
2018-06-09T09:15:43.435Z,21.47
2018-06-09T09:18:12.233Z,24.97
2018-06-09T09:20:40.966Z,23.93
2018-06-09T09:23:09.683Z,24.87
2018-06-09T09:25:38.385Z,27.10
2018-06-09T09:28:07.096Z,18.93
2018-06-09T09:30:35.865Z,21.83
2018-06-09T09:33:04.624Z,22.90
2018-06-09T09:35:33.442Z,23.17
2018-06-09T09:38:02.126Z,22.33
2018-06-09T09:40:30.809Z,18.53
2018-06-09T09:42:59.553Z,18.63
2018-06-09T09:45:28.308Z,21.40
2018-06-09T09:47:57.041Z,21.03
2018-06-09T09:50:25.750Z,15.93
2018-06-09T09:52:54.485Z,16.63
2018-06-09T09:55:23.230Z,18.23
2018-06-09T09:57:58.545Z,17.83
2018-06-09T10:00:33.232Z,26.63
2018-06-09T10:03:02.028Z,14.23
2018-06-09T10:05:30.772Z,18.80
2018-06-09T10:07:59.469Z,26.20
2018-06-09T10:10:28.482Z,18.23
2018-06-09T10:12:57.176Z,17.73
2018-06-09T10:15:25.908Z,21.90
2018-06-09T10:17:54.750Z,18.63
2018-06-09T10:20:23.526Z,19.17
2018-06-09T10:22:52.305Z,22.30
2018-06-09T10:25:20.997Z,16.87
2018-06-09T10:27:49.743Z,18.40
2018-06-09T10:30:18.911Z,20.53
2018-06-09T10:32:47.772Z,20.27
2018-06-09T10:35:16.739Z,31.93
2018-06-09T10:37:45.534Z,23.43
2018-06-09T10:40:15.417Z,19.93
2018-06-09T10:42:45.257Z,27.77
2018-06-09T10:45:15.318Z,25.53
2018-06-09T10:47:45.051Z,27.73
2018-06-09T10:50:13.892Z,22.53
2018-06-09T10:52:42.652Z,15.03
2018-06-09T10:55:11.404Z,18.07
2018-06-09T10:57:40.143Z,22.67
2018-06-09T11:00:08.850Z,15.93
2018-06-09T11:02:37.685Z,25.30
2018-06-09T11:05:06.516Z,17.97
2018-06-09T11:07:35.312Z,17.50
2018-06-09T11:10:04.088Z,16.53
2018-06-09T11:12:32.851Z,18.70
2018-06-09T11:15:04.995Z,21.67
2018-06-09T11:17:33.744Z,29.07
2018-06-09T11:20:02.501Z,20.27
2018-06-09T11:22:31.304Z,15.50
2018-06-09T11:25:00.072Z,15.73
2018-06-09T11:27:28.900Z,20.70
2018-06-09T11:29:57.609Z,15.53
2018-06-09T11:32:26.379Z,16.63
2018-06-09T11:34:55.125Z,17.63
2018-06-09T11:37:23.937Z,15.03
2018-06-09T11:39:52.671Z,16.60
2018-06-09T11:42:21.712Z,16.77
2018-06-09T11:44:50.519Z,14.40
2018-06-09T11:47:19.316Z,15.50
2018-06-09T11:49:48.083Z,16.43
2018-06-09T11:52:16.853Z,14.63
2018-06-09T11:54:45.599Z,22.17
2018-06-09T11:57:14.334Z,18.70
2018-06-09T11:59:43.094Z,17.50
2018-06-09T12:02:11.832Z,18.33
2018-06-09T12:04:40.617Z,19.20
2018-06-09T12:07:09.338Z,17.70
2018-06-09T12:09:38.103Z,17.53
2018-06-09T12:12:06.926Z,21.70
2018-06-09T12:14:36.143Z,19.83
2018-06-09T12:17:05.313Z,16.70
2018-06-09T12:19:34.086Z,18.00
2018-06-09T12:22:02.892Z,15.60
2018-06-09T12:24:31.712Z,17.73
2018-06-09T12:27:00.571Z,17.60
2018-06-09T12:29:29.455Z,17.67
2018-06-09T12:31:58.232Z,26.57
2018-06-09T12:34:27.069Z,15.60
2018-06-09T12:36:55.837Z,13.40
2018-06-09T12:39:24.664Z,18.10
2018-06-09T12:41:53.514Z,20.13
2018-06-09T12:44:22.280Z,20.80
2018-06-09T12:46:51.050Z,16.40
2018-06-09T12:49:19.847Z,17.83
2018-06-09T12:51:48.794Z,16.93
2018-06-09T12:54:17.586Z,16.60
2018-06-09T12:56:46.349Z,16.90
2018-06-09T12:59:15.180Z,15.30
2018-06-09T13:01:44.196Z,14.70
2018-06-09T13:04:13.009Z,14.43
2018-06-09T13:06:41.814Z,16.40
2018-06-09T13:09:10.752Z,15.90
2018-06-09T13:11:39.573Z,15.70
2018-06-09T13:14:08.387Z,20.83
2018-06-09T13:16:37.145Z,13.57
2018-06-09T13:19:07.053Z,21.93
2018-06-09T13:21:35.890Z,15.30
2018-06-09T13:24:04.749Z,13.00
2018-06-09T13:26:33.632Z,18.47
2018-06-09T13:29:02.400Z,14.27
2018-06-09T13:31:31.227Z,15.43
2018-06-09T13:34:00.046Z,17.30
2018-06-09T13:36:28.980Z,17.63
2018-06-09T13:38:57.931Z,14.80
2018-06-09T13:41:26.826Z,13.30
2018-06-09T13:43:55.691Z,13.47
2018-06-09T13:46:24.602Z,15.43
2018-06-09T13:48:53.450Z,19.53
2018-06-09T13:51:22.356Z,14.30
2018-06-09T13:53:51.509Z,14.70
2018-06-09T13:56:20.369Z,14.40
2018-06-09T13:58:49.272Z,14.27
2018-06-09T14:01:18.128Z,24.97
2018-06-09T14:03:46.999Z,17.17
2018-06-09T14:06:15.988Z,12.70
2018-06-09T14:08:44.896Z,12.07
2018-06-09T14:11:14.018Z,12.53
2018-06-09T14:13:44.218Z,9.40
2018-06-09T14:16:13.105Z,8.03
2018-06-09T14:18:41.881Z,9.33
2018-06-09T14:21:10.589Z,12.40
2018-06-09T14:23:39.333Z,11.80
2018-06-09T14:26:08.131Z,15.70
2018-06-09T14:28:37.177Z,9.93
2018-06-09T14:31:06.232Z,16.23
2018-06-09T14:33:35.151Z,25.77
2018-06-09T14:36:04.417Z,14.50
2018-06-09T14:38:33.705Z,15.47
2018-06-09T14:41:02.775Z,13.53
2018-06-09T14:43:31.750Z,12.67
2018-06-09T14:46:00.808Z,18.23
2018-06-09T14:48:29.638Z,14.37
2018-06-09T14:50:58.431Z,14.07
2018-06-09T14:53:27.408Z,16.70
2018-06-09T14:55:56.189Z,14.13
2018-06-09T14:58:25.601Z,14.97
2018-06-09T15:00:54.490Z,17.20
2018-06-09T15:03:23.286Z,13.97
2018-06-09T15:05:52.131Z,13.23
2018-06-09T15:08:20.840Z,15.53
2018-06-09T15:10:49.792Z,17.53
2018-06-09T15:13:18.741Z,13.80
2018-06-09T15:15:47.703Z,14.30
2018-06-09T15:18:16.682Z,16.17
2018-06-09T15:20:45.605Z,14.50
2018-06-09T15:23:14.951Z,20.10
2018-06-09T15:25:44.075Z,16.90
2018-06-09T15:28:13.050Z,17.40
2018-06-09T15:30:41.956Z,15.50
2018-06-09T15:33:10.835Z,14.20
2018-06-09T15:35:39.830Z,22.70
2018-06-09T15:38:08.708Z,19.03
2018-06-09T15:40:37.539Z,15.50
2018-06-09T15:43:07.683Z,19.90
2018-06-09T15:45:36.625Z,16.10
2018-06-09T15:48:05.649Z,17.70
2018-06-09T15:50:34.616Z,18.73
2018-06-09T15:53:03.787Z,18.07
2018-06-09T15:55:32.686Z,16.63
2018-06-09T15:58:01.701Z,18.03
2018-06-09T16:00:31.932Z,19.10
2018-06-09T16:03:01.806Z,16.30
2018-06-09T16:05:30.756Z,15.20
2018-06-09T16:07:59.920Z,14.50
2018-06-09T16:10:28.779Z,21.43
2018-06-09T16:12:57.678Z,19.70
2018-06-09T16:15:30.437Z,24.13
2018-06-09T16:17:59.746Z,21.00
2018-06-09T16:20:29.073Z,16.33
2018-06-09T16:22:57.975Z,32.10
2018-06-09T16:25:26.818Z,16.40
2018-06-09T16:27:55.557Z,19.40
2018-06-09T16:30:24.347Z,18.30
2018-06-09T16:32:53.194Z,23.33
2018-06-09T16:35:21.968Z,28.13
2018-06-09T16:37:51.235Z,19.40
2018-06-09T16:40:20.200Z,19.73
2018-06-09T16:42:52.109Z,19.53
2018-06-09T16:45:21.107Z,17.73
2018-06-09T16:47:49.997Z,16.53
2018-06-09T16:50:18.969Z,17.27
2018-06-09T16:52:49.001Z,25.90
2018-06-09T16:55:17.960Z,19.07
2018-06-09T16:57:47.182Z,23.40
2018-06-09T17:00:15.989Z,17.20
2018-06-09T17:02:44.712Z,19.77
2018-06-09T17:05:13.615Z,19.77
2018-06-09T17:07:42.601Z,19.57
2018-06-09T17:10:11.854Z,27.83
2018-06-09T17:12:40.697Z,18.67
2018-06-09T17:15:12.724Z,22.40
2018-06-09T17:17:41.794Z,19.70
2018-06-09T17:20:10.816Z,23.37
2018-06-09T17:22:39.656Z,20.30
2018-06-09T17:25:08.799Z,20.40
2018-06-09T17:27:37.665Z,19.37
2018-06-09T17:30:06.651Z,18.70
2018-06-09T17:32:35.743Z,20.13
2018-06-09T17:35:04.644Z,23.63
2018-06-09T17:37:33.480Z,24.37
2018-06-09T17:40:02.505Z,12.60
2018-06-09T17:42:31.585Z,24.40
2018-06-09T17:45:00.298Z,32.33
2018-06-09T17:47:29.043Z,58.47
2018-06-09T17:49:57.881Z,21.82
2018-06-09T17:52:26.637Z,15.98
2018-06-09T17:54:55.309Z,20.05
2018-06-09T17:57:24.059Z,18.90
2018-06-09T17:59:55.489Z,12.80
2018-06-09T18:02:24.020Z,111.70
2018-06-09T18:04:52.810Z,180.07
2018-06-09T18:07:21.484Z,131.27
2018-06-09T18:09:49.914Z,1.55
2018-06-09T18:12:18.475Z,0.90
2018-06-09T18:14:48.018Z,1.80
2018-06-09T18:17:17.991Z,1.00
2018-06-09T18:19:48.944Z,1.00
2018-06-09T18:22:19.249Z,0.70
2018-06-09T18:25:06.535Z,0.70
2018-06-09T18:27:38.153Z,0.70
2018-06-09T18:30:08.881Z,107.95
2018-06-09T18:32:38.409Z,176.25
2018-06-09T18:35:06.968Z,240.70
2018-06-09T18:37:35.449Z,109.45
2018-06-09T18:40:06.095Z,88.47
2018-06-09T18:42:36.131Z,190.97
2018-06-09T18:45:05.061Z,72.27
2018-06-09T18:47:33.602Z,192.80
2018-06-09T18:50:02.067Z,187.57
2018-06-09T18:52:30.617Z,106.83
2018-06-09T18:54:59.192Z,179.50
2018-06-09T18:57:27.705Z,203.70
2018-06-09T18:59:56.256Z,96.87
2018-06-09T19:02:25.978Z,166.95
2018-06-09T19:04:54.779Z,114.05
2018-06-09T19:07:23.384Z,136.50
2018-06-09T19:09:51.971Z,126.97
2018-06-09T19:12:20.435Z,104.97
2018-06-09T19:14:49.170Z,108.05
2018-06-09T19:17:17.699Z,87.17
2018-06-09T19:19:46.250Z,140.77
2018-06-09T19:22:15.026Z,77.17
2018-06-09T19:24:43.465Z,61.63
2018-06-09T19:27:11.861Z,103.20
2018-06-09T19:29:40.477Z,65.20
2018-06-09T19:32:08.944Z,25.00
2018-06-09T19:34:37.394Z,53.87
2018-06-09T19:37:05.893Z,66.45
2018-06-09T19:39:34.662Z,57.57
2018-06-09T19:42:03.304Z,53.77
2018-06-09T19:44:32.013Z,76.10
2018-06-09T19:47:00.778Z,63.97
2018-06-09T19:49:37.514Z,26.47
2018-06-09T19:55:21.809Z,48.38
2018-06-09T19:58:13.830Z,77.30
2018-06-09T20:00:47.814Z,68.03
2018-06-09T20:06:01.359Z,64.80
2018-06-09T20:11:59.994Z,42.10
2018-06-09T20:14:28.933Z,100.38
2018-06-09T20:16:59.241Z,132.43
2018-06-09T20:19:28.460Z,68.87
2018-06-09T20:21:57.041Z,124.60
2018-06-09T20:24:25.634Z,110.92
2018-06-09T20:27:00.186Z,141.55
2018-06-09T20:29:34.974Z,139.13
2018-06-09T20:32:08.960Z,71.13
2018-06-09T20:37:39.164Z,41.88
2018-06-09T20:42:52.437Z,71.37
2018-06-09T20:45:21.976Z,90.53
2018-06-09T20:47:51.165Z,89.05
2018-06-09T20:50:20.144Z,41.00
2018-06-09T20:56:24.023Z,60.67
2018-06-09T20:59:22.351Z,98.42
2018-06-09T21:02:04.061Z,94.90
2018-06-09T21:07:38.997Z,83.65
2018-06-09T21:13:25.566Z,96.32
2018-06-09T21:15:55.604Z,125.72
2018-06-09T21:21:43.194Z,66.20
2018-06-09T21:24:35.023Z,97.72
2018-06-09T21:27:33.880Z,35.03
2018-06-09T21:36:42.760Z,67.12
2018-06-09T21:42:45.690Z,44.05
2018-06-09T21:51:38.589Z,49.87
2018-06-09T21:54:10.150Z,69.27
2018-06-09T21:59:47.497Z,80.77
2018-06-09T22:02:18.030Z,58.40
2018-06-09T22:04:47.223Z,88.65
2018-06-09T22:07:22.193Z,64.82
2018-06-09T22:09:51.934Z,47.55
2018-06-09T22:15:57.805Z,65.60
2018-06-09T22:18:48.281Z,80.45
2018-06-09T22:21:19.322Z,83.58
2018-06-09T22:23:47.889Z,51.43
2018-06-09T22:26:17.265Z,62.10
2018-06-09T22:28:50.604Z,56.35
2018-06-09T22:31:36.637Z,93.60
2018-06-09T22:34:08.150Z,63.47
2018-06-09T22:36:37.158Z,58.43
2018-06-09T22:39:08.115Z,80.10
2018-06-09T22:41:36.550Z,37.93
2018-06-09T22:44:05.105Z,41.30
2018-06-09T22:46:33.529Z,48.00
2018-06-09T22:49:01.989Z,60.05
2018-06-09T22:51:30.398Z,110.17
2018-06-09T22:53:58.842Z,115.00
2018-06-09T22:56:27.306Z,106.92
2018-06-09T22:58:55.746Z,74.60
2018-06-09T23:01:24.228Z,113.15
2018-06-09T23:03:53.213Z,102.10
2018-06-09T23:06:23.876Z,40.40
2018-06-09T23:08:52.355Z,82.00
2018-06-09T23:11:20.738Z,81.55
2018-06-09T23:13:55.338Z,82.35
2018-06-09T23:19:41.246Z,86.50
2018-06-09T23:22:15.612Z,48.15
2018-06-09T23:24:44.088Z,60.83
2018-06-09T23:27:12.449Z,35.52
2018-06-09T23:29:40.849Z,66.00
2018-06-09T23:32:09.273Z,95.33
2018-06-09T23:34:37.636Z,49.40
2018-06-09T23:37:06.045Z,72.10
2018-06-09T23:39:34.579Z,49.83
2018-06-09T23:42:03.015Z,33.93
2018-06-09T23:44:31.378Z,66.73
2018-06-09T23:46:59.792Z,51.87
2018-06-09T23:49:28.176Z,70.97
2018-06-09T23:51:56.569Z,71.43
2018-06-09T23:54:24.952Z,73.37
2018-06-09T23:56:53.324Z,91.27
2018-06-09T23:59:21.719Z,57.37
